Time;durP1;ratioP1;P1;durP2;ratioP2;P2;SDS_P1;SDS_P2;PMS_P1;PMS_P2;Temp;Humidity;BMP_temperature;BMP_pressure;BME280_temperature;BME280_humidity;BME280_pressure;Samples;Min_cycle;Max_cycle;Signal;HPM_P1;HPM_P2
2023/10/21 00:02:05;;;;;;;;;;;;;;;18.91;55.37;94779.41;4213894;28;5660;-63
2023/10/21 00:04:10;;;;;;;;;;;;;;;18.91;55.57;94782.09;4204324;28;5631;-62
2023/10/21 00:06:14;;;;;;;;;;;;;;;18.91;55.93;94779.41;4215588;28;5635;-63
2023/10/21 00:08:16;;;;;;;;;;;;;;;18.89;55.84;94786.94;4203178;28;5623;-64
2023/10/21 00:10:21;;;;;;;;;;;;;;;18.86;56.09;94800.94;4201055;28;5726;-63
2023/10/21 00:12:25;;;;;;;;;;;;;;;18.84;56.21;94803.13;4213774;28;5644;-63
2023/10/21 00:14:28;;;;;;;;;;;;;;;18.84;56.76;94808.47;4209840;28;5662;-62
2023/10/21 00:16:31;;;;;;;;;;;;;;;18.84;56.95;94811.16;4217332;28;5667;-62
2023/10/21 00:18:34;;;;;;;;;;;;;;;18.82;57.08;94824.03;4209007;28;5612;-62
2023/10/21 00:20:37;;;;;;;;;;;;;;;18.80;57.22;94826.19;4209338;28;5609;-63
2023/10/21 00:22:40;;;;;;;;;;;;;;;18.75;57.25;94829.75;4209404;28;5611;-62
2023/10/21 00:24:42;;;;;;;;;;;;;;;18.72;58.09;94842.94;4209031;28;6413;-62
2023/10/21 00:26:47;;;;;;;;;;;;;;;18.65;58.05;94847.84;4202920;28;7679;-62
2023/10/21 00:28:50;;;;;;;;;;;;;;;18.61;58.67;94851.09;4206522;28;5837;-62
2023/10/21 00:30:53;;;;;;;;;;;;;;;18.54;59.05;94864.03;4203834;28;5794;-62
2023/10/21 00:32:56;;;;;;;;;;;;;;;18.50;59.28;94867.56;4217691;28;5592;-64
2023/10/21 00:34:59;;;;;;;;;;;;;;;18.48;59.32;94853.69;4217696;28;5727;-63
2023/10/21 00:37:03;;;;;;;;;;;;;;;18.45;59.68;94873.78;4213008;28;5950;-63
2023/10/21 00:39:10;;;;;;;;;;;;;;;18.42;59.59;94877.03;4200590;28;5621;-63
2023/10/21 00:41:13;;;;;;;;;;;;;;;18.44;59.88;94887.44;4206420;28;5612;-62
2023/10/21 00:45:46;;;;;;;;;;;;;;;18.42;60.21;94898.44;4248944;27;8090;-62
2023/10/21 00:47:50;;;;;;;;;;;;;;;18.39;60.26;94907.03;4248712;27;7138;-62
2023/10/21 00:49:53;;;;;;;;;;;;;;;18.37;60.85;94911.91;4239911;27;5649;-63
2023/10/21 00:51:56;;;;;;;;;;;;;;;18.30;60.83;94916.78;4248929;27;5745;-63
2023/10/21 00:54:01;;;;;;;;;;;;;;;18.26;61.34;94924.59;4248432;27;5646;-63
2023/10/21 00:56:05;;;;;;;;;;;;;;;18.22;61.73;94923.56;4248677;27;5609;-63
2023/10/21 00:58:08;;;;;;;;;;;;;;;18.15;62.02;94927.69;4248681;27;5650;-63
2023/10/21 01:00:13;;;;;;;;;;;;;;;18.15;61.68;94938.38;4248853;27;5736;-63
2023/10/21 01:02:17;;;;;;;;;;;;;;;18.15;61.79;94933.81;4248986;27;5650;-63
2023/10/21 01:04:21;;;;;;;;;;;;;;;18.15;61.91;94949.09;4248797;27;5787;-63
2023/10/21 01:06:26;;;;;;;;;;;;;;;18.14;61.95;94948.28;4248595;27;5621;-63
2023/10/21 01:08:29;;;;;;;;;;;;;;;18.16;62.07;94940.75;4248474;27;5658;-63
2023/10/21 01:10:31;;;;;;;;;;;;;;;18.17;61.88;94942.34;4239760;27;5662;-63
2023/10/21 01:12:34;;;;;;;;;;;;;;;18.17;62.01;94944.25;4248581;27;5718;-63
2023/10/21 01:14:37;;;;;;;;;;;;;;;18.13;62.28;94945.91;4248421;27;5662;-63
2023/10/21 01:16:40;;;;;;;;;;;;;;;18.11;62.23;94948.03;4248484;27;5608;-63
2023/10/21 01:18:44;;;;;;;;;;;;;;;18.11;62.46;94948.03;4248059;27;6508;-63
2023/10/21 01:20:51;;;;;;;;;;;;;;;18.11;62.63;94956.84;4248364;27;5613;-63
2023/10/21 01:22:56;;;;;;;;;;;;;;;18.13;62.35;94957.38;4248425;27;5721;-63
2023/10/21 01:25:00;;;;;;;;;;;;;;;18.15;62.74;94959.78;4248138;27;5634;-63
2023/10/21 01:27:02;;;;;;;;;;;;;;;18.16;62.74;94964.03;4248469;27;5100;-63
2023/10/21 01:29:09;;;;;;;;;;;;;;;18.17;62.65;94963.75;4237232;27;5840;-63
2023/10/21 01:31:12;;;;;;;;;;;;;;;18.18;62.47;94965.34;4251523;27;5629;-63
2023/10/21 01:33:14;;;;;;;;;;;;;;;18.20;62.68;94963.19;4249051;27;5666;-63
2023/10/21 01:35:18;;;;;;;;;;;;;;;18.21;62.68;94966.63;4248368;27;5642;-63
2023/10/21 01:37:21;;;;;;;;;;;;;;;18.20;62.31;94971.19;4248330;27;5642;-63
2023/10/21 01:39:24;;;;;;;;;;;;;;;18.20;62.65;94962.38;4248085;27;5657;-63
2023/10/21 01:41:28;;;;;;;;;;;;;;;18.20;62.52;94975.75;4243725;27;5724;-63
2023/10/21 01:43:32;;;;;;;;;;;;;;;18.23;62.61;94967.16;4239635;27;5654;-63
2023/10/21 01:45:35;;;;;;;;;;;;;;;18.25;62.58;94973.03;4231475;27;5743;-63
2023/10/21 01:47:37;;;;;;;;;;;;;;;18.24;62.46;94974.13;4247976;27;5654;-63
2023/10/21 01:49:40;;;;;;;;;;;;;;;18.24;62.31;94976.78;4247868;27;5879;-63
2023/10/21 01:51:44;;;;;;;;;;;;;;;18.23;62.35;94976.00;4248117;27;8551;-63
2023/10/21 01:53:46;;;;;;;;;;;;;;;18.25;62.16;94983.72;4248092;27;5753;-63
2023/10/21 01:55:48;;;;;;;;;;;;;;;18.23;62.13;94986.69;4243945;27;5666;-63
2023/10/21 01:57:53;;;;;;;;;;;;;;;18.24;62.28;94987.50;4235887;28;5659;-63
2023/10/21 01:59:55;;;;;;;;;;;;;;;18.25;62.34;94994.44;4236679;28;5776;-63
2023/10/21 02:01:57;;;;;;;;;;;;;;;18.25;62.17;94987.19;4236583;28;5866;-63
2023/10/21 02:04:00;;;;;;;;;;;;;;;18.25;61.87;94986.41;4236476;28;5649;-63
2023/10/21 02:06:06;;;;;;;;;;;;;;;18.24;61.75;94990.16;4236207;28;5642;-63
2023/10/21 02:08:09;;;;;;;;;;;;;;;18.25;61.97;94989.09;4236359;28;5740;-63
2023/10/21 02:10:11;;;;;;;;;;;;;;;18.26;61.88;94996.03;4236126;28;5644;-63
2023/10/21 02:12:14;;;;;;;;;;;;;;;18.26;61.66;94990.66;4235626;28;5616;-63
2023/10/21 02:14:18;;;;;;;;;;;;;;;18.25;61.76;94991.75;4235793;28;5843;-63
2023/10/21 02:16:21;;;;;;;;;;;;;;;18.24;61.43;94992.84;4236180;28;7507;-63
2023/10/21 02:18:23;;;;;;;;;;;;;;;18.22;61.71;95000.31;4234700;28;5605;-63
2023/10/21 02:20:26;;;;;;;;;;;;;;;18.21;61.58;95004.88;4224661;27;5875;-63
2023/10/21 02:22:28;;;;;;;;;;;;;;;18.23;61.54;95010.78;4222218;27;5700;-62
2023/10/21 02:24:35;;;;;;;;;;;;;;;18.25;61.57;95007.81;4227056;27;5659;-63
2023/10/21 02:26:38;;;;;;;;;;;;;;;18.26;61.55;95004.84;4225126;27;5667;-63
2023/10/21 02:28:43;;;;;;;;;;;;;;;18.25;61.17;95008.59;4236371;28;5859;-63
2023/10/21 02:30:47;;;;;;;;;;;;;;;18.22;60.80;95011.03;4229468;27;5765;-63
2023/10/21 02:32:50;;;;;;;;;;;;;;;18.23;61.23;95009.94;4231840;27;6896;-63
2023/10/21 02:34:55;;;;;;;;;;;;;;;18.20;60.83;95008.63;4227886;27;5798;-63
2023/10/21 02:36:58;;;;;;;;;;;;;;;18.22;60.92;95019.06;4224078;27;5663;-62
2023/10/21 02:39:02;;;;;;;;;;;;;;;18.22;60.60;95017.16;4222994;27;5707;-63
2023/10/21 02:41:06;;;;;;;;;;;;;;;18.23;60.75;95016.13;4223615;27;5731;-62
2023/10/21 02:43:10;;;;;;;;;;;;;;;18.25;60.71;95021.19;4226429;27;5678;-62
2023/10/21 02:45:12;;;;;;;;;;;;;;;18.26;60.56;95023.56;4226504;27;5652;-63
2023/10/21 02:47:17;;;;;;;;;;;;;;;18.27;60.44;95019.00;4225339;27;5808;-63
2023/10/21 02:49:20;;;;;;;;;;;;;;;18.27;60.46;95017.13;4222165;27;5748;-61
2023/10/21 02:51:23;;;;;;;;;;;;;;;18.30;60.30;95023.78;4229263;27;5712;-62
2023/10/21 02:53:25;;;;;;;;;;;;;;;18.30;60.15;95026.47;4231474;27;5601;-63
2023/10/21 02:55:29;;;;;;;;;;;;;;;18.30;60.38;95029.13;4229564;27;5645;-63
2023/10/21 02:57:32;;;;;;;;;;;;;;;18.30;60.23;95026.47;4224393;27;5843;-63
2023/10/21 02:59:35;;;;;;;;;;;;;;;18.31;60.36;95028.06;4224492;27;5774;-62
2023/10/21 03:01:38;;;;;;;;;;;;;;;18.32;60.09;95029.63;4226055;27;5745;-62
2023/10/21 03:03:43;;;;;;;;;;;;;;;18.32;60.40;95030.44;4229086;27;5878;-62
2023/10/21 03:05:46;;;;;;;;;;;;;;;18.33;60.07;95042.72;4232477;27;5857;-62
2023/10/21 03:07:48;;;;;;;;;;;;;;;18.33;60.29;95039.25;4232201;27;6546;-62
2023/10/21 03:09:51;;;;;;;;;;;;;;;18.33;60.42;95040.06;4226164;27;5896;-63
2023/10/21 03:11:54;;;;;;;;;;;;;;;18.35;60.19;95039.78;4227408;27;5646;-63
2023/10/21 03:13:56;;;;;;;;;;;;;;;18.35;60.28;95045.16;4226395;27;5678;-63
2023/10/21 03:16:00;;;;;;;;;;;;;;;18.38;60.67;95049.13;4227410;27;5830;-63
2023/10/21 03:18:03;;;;;;;;;;;;;;;18.37;60.49;95042.97;4230733;27;5725;-64
2023/10/21 03:20:09;;;;;;;;;;;;;;;18.37;60.72;95032.28;4234737;28;5646;-63
2023/10/21 03:22:12;;;;;;;;;;;;;;;18.39;60.42;95053.38;4234501;28;5654;-63
2023/10/21 03:24:15;;;;;;;;;;;;;;;18.39;60.32;95056.06;4235832;27;5636;-63
2023/10/21 03:26:18;;;;;;;;;;;;;;;18.39;60.77;95061.41;4236759;27;5789;-63
2023/10/21 03:28:22;;;;;;;;;;;;;;;18.39;60.49;95062.22;4234547;28;5670;-64
2023/10/21 03:30:24;;;;;;;;;;;;;;;18.40;60.90;95066.47;4230565;27;5642;-64
2023/10/21 03:32:27;;;;;;;;;;;;;;;18.38;60.94;95065.97;4239695;27;5642;-62
2023/10/21 03:34:32;;;;;;;;;;;;;;;18.37;60.71;95064.38;4234372;28;5638;-62
2023/10/21 03:36:37;;;;;;;;;;;;;;;18.38;60.79;95073.19;4234500;28;5832;-63
2023/10/21 03:38:40;;;;;;;;;;;;;;;18.36;60.85;95068.13;4236753;27;5729;-63
2023/10/21 03:40:43;;;;;;;;;;;;;;;18.36;60.84;95073.50;4234538;28;6343;-62
2023/10/21 03:42:46;;;;;;;;;;;;;;;18.34;60.93;95072.94;4234787;27;5635;-63
2023/10/21 03:44:49;;;;;;;;;;;;;;;18.33;60.90;95066.81;4234392;28;5713;-63
2023/10/21 03:46:51;;;;;;;;;;;;;;;18.30;60.32;95077.28;4234806;28;5662;-62
2023/10/21 03:48:54;;;;;;;;;;;;;;;18.22;60.53;95076.00;4234832;28;5616;-63
2023/10/21 03:51:05;;;;;;;;;;;;;;;18.20;60.47;95080.84;4234744;27;5665;-64
2023/10/21 03:53:09;;;;;;;;;;;;;;;18.20;60.26;95090.75;4236329;27;5662;-62
2023/10/21 03:55:12;;;;;;;;;;;;;;;18.18;60.27;95085.69;4234384;27;5649;-62
2023/10/21 03:57:15;;;;;;;;;;;;;;;18.17;60.38;95091.31;4233710;27;6436;-63
2023/10/21 03:59:18;;;;;;;;;;;;;;;18.16;60.26;95092.41;4234477;28;5725;-63
2023/10/21 04:01:21;;;;;;;;;;;;;;;18.17;60.23;95100.16;4234280;28;5703;-63
2023/10/21 04:03:25;;;;;;;;;;;;;;;18.17;60.08;95105.50;4231275;27;5930;-62
2023/10/21 04:05:28;;;;;;;;;;;;;;;18.19;60.36;95097.97;4234968;27;5646;-63
2023/10/21 04:07:31;;;;;;;;;;;;;;;18.20;59.99;95115.63;4225836;28;5629;-63
2023/10/21 04:09:36;;;;;;;;;;;;;;;18.20;59.91;95118.28;4234388;28;5107;-63
2023/10/21 04:11:39;;;;;;;;;;;;;;;18.19;60.18;95110.56;4234186;28;5643;-62
2023/10/21 04:13:47;;;;;;;;;;;;;;;18.20;59.86;95112.16;4232521;28;5118;-63
2023/10/21 04:15:50;;;;;;;;;;;;;;;18.22;59.96;95118.00;4234334;28;5907;-62
2023/10/21 04:17:53;;;;;;;;;;;;;;;18.24;59.92;95119.34;4232776;27;5638;-62
2023/10/21 04:19:56;;;;;;;;;;;;;;;18.25;59.73;95114.78;4228779;27;5646;-63
2023/10/21 04:21:59;;;;;;;;;;;;;;;18.23;59.57;95111.56;4234262;28;5760;-62
2023/10/21 04:24:03;;;;;;;;;;;;;;;18.22;59.61;95115.34;4234288;28;5642;-64
2023/10/21 04:26:07;;;;;;;;;;;;;;;18.20;59.47;95106.81;4234206;28;5650;-63
2023/10/21 04:28:11;;;;;;;;;;;;;;;18.21;59.42;95113.75;4232169;28;5721;-63
2023/10/21 04:30:13;;;;;;;;;;;;;;;18.19;59.12;95115.91;4227580;28;5668;-63
2023/10/21 04:32:16;;;;;;;;;;;;;;;18.17;59.21;95118.88;4232284;28;5672;-63
2023/10/21 04:34:19;;;;;;;;;;;;;;;18.13;59.17;95120.50;4234308;28;5695;-63
2023/10/21 04:36:21;;;;;;;;;;;;;;;18.13;58.92;95123.19;4234084;28;5650;-62
2023/10/21 04:38:24;;;;;;;;;;;;;;;18.11;58.92;95119.97;4241740;27;5625;-63
2023/10/21 04:40:27;;;;;;;;;;;;;;;18.08;58.78;95120.53;4234200;27;5714;-63
2023/10/21 04:42:31;;;;;;;;;;;;;;;18.06;58.65;95130.72;4232718;28;5716;-63
2023/10/21 04:44:34;;;;;;;;;;;;;;;18.06;58.43;95127.25;4225900;27;5743;-63
2023/10/21 04:46:37;;;;;;;;;;;;;;;18.04;58.55;95140.91;4227209;27;5742;-62
2023/10/21 04:48:40;;;;;;;;;;;;;;;18.03;58.36;95145.47;4235260;27;5773;-63
2023/10/21 04:50:43;;;;;;;;;;;;;;;18.01;58.43;95147.63;4227161;27;5663;-63
2023/10/21 04:52:45;;;;;;;;;;;;;;;18.00;57.77;95146.00;4216903;28;5672;-63
2023/10/21 04:54:48;;;;;;;;;;;;;;;18.01;58.01;95158.31;4216453;28;5727;-63
2023/10/21 04:56:52;;;;;;;;;;;;;;;18.00;57.69;95156.69;4217286;28;6006;-63
2023/10/21 04:58:56;;;;;;;;;;;;;;;18.01;57.72;95154.84;4216967;28;7714;-63
2023/10/21 05:00:59;;;;;;;;;;;;;;;18.02;57.94;95162.59;4217238;28;5634;-64
2023/10/21 05:03:02;;;;;;;;;;;;;;;18.02;57.83;95165.25;4216448;28;5788;-64
2023/10/21 05:05:05;;;;;;;;;;;;;;;18.06;57.71;95170.84;4216595;28;5679;-63
2023/10/21 05:07:09;;;;;;;;;;;;;;;18.08;57.40;95174.03;4216875;28;5642;-63
2023/10/21 05:09:11;;;;;;;;;;;;;;;18.07;57.33;95169.75;4216870;28;5721;-63
2023/10/21 05:11:14;;;;;;;;;;;;;;;18.08;57.31;95168.69;4216494;28;5683;-63
2023/10/21 05:13:17;;;;;;;;;;;;;;;18.08;57.49;95174.03;4216903;28;5642;-63
2023/10/21 05:15:23;;;;;;;;;;;;;;;18.11;57.60;95184.16;4216923;28;5751;-63
2023/10/21 05:17:25;;;;;;;;;;;;;;;18.11;57.53;95172.66;4217012;28;5701;-63
2023/10/21 05:19:28;;;;;;;;;;;;;;;18.14;57.24;95193.53;4216712;28;5697;-63
2023/10/21 05:21:32;;;;;;;;;;;;;;;18.14;57.52;95198.88;4208751;28;5656;-63
2023/10/21 05:23:35;;;;;;;;;;;;;;;18.14;57.44;95194.31;4216727;28;5656;-63
2023/10/21 05:25:38;;;;;;;;;;;;;;;18.14;57.35;95204.22;4216772;28;5758;-63
2023/10/21 05:27:40;;;;;;;;;;;;;;;18.14;57.23;95204.22;4216463;28;5671;-63
2023/10/21 05:29:43;;;;;;;;;;;;;;;18.14;57.52;95201.53;4216886;28;6404;-63
2023/10/21 05:31:49;;;;;;;;;;;;;;;18.15;57.29;95203.13;4218448;28;5676;-63
2023/10/21 05:33:56;;;;;;;;;;;;;;;18.16;57.39;95196.72;4220372;28;5679;-63
2023/10/21 05:36:01;;;;;;;;;;;;;;;18.19;57.60;95204.16;4220207;28;5671;-63
2023/10/21 05:38:04;;;;;;;;;;;;;;;18.20;57.51;95200.41;4219935;28;5672;-63
2023/10/21 05:40:08;;;;;;;;;;;;;;;18.21;57.67;95202.00;4219759;28;5725;-63
2023/10/21 05:42:11;;;;;;;;;;;;;;;18.21;57.54;95204.69;4219950;28;5658;-63
2023/10/21 05:44:14;;;;;;;;;;;;;;;18.20;57.75;95211.09;4219699;28;5783;-63
2023/10/21 05:46:17;;;;;;;;;;;;;;;18.21;57.68;95215.38;4219902;28;5719;-63
2023/10/21 05:48:21;;;;;;;;;;;;;;;18.19;57.71;95218.34;4219253;28;5663;-63
2023/10/21 05:50:25;;;;;;;;;;;;;;;18.21;57.62;95226.06;4213935;28;5682;-63
2023/10/21 05:52:28;;;;;;;;;;;;;;;18.20;58.07;95217.25;4216570;28;5816;-63
2023/10/21 05:54:32;;;;;;;;;;;;;;;18.21;57.90;95218.06;4212195;28;5824;-63
2023/10/21 05:56:35;;;;;;;;;;;;;;;18.21;57.77;95220.72;4211534;28;5770;-63
2023/10/21 05:58:37;;;;;;;;;;;;;;;18.17;58.28;95225.84;4219520;28;5720;-63
2023/10/21 06:00:39;;;;;;;;;;;;;;;18.19;58.08;95228.22;4219407;28;5680;-63
2023/10/21 06:02:42;;;;;;;;;;;;;;;18.18;58.08;95227.44;4219596;28;5737;-63
2023/10/21 06:04:47;;;;;;;;;;;;;;;18.20;58.13;95237.84;4219600;28;5672;-63
2023/10/21 06:06:54;;;;;;;;;;;;;;;18.21;58.07;95239.44;4219464;28;6474;-63
2023/10/21 06:08:57;;;;;;;;;;;;;;;18.20;58.34;95243.19;4219494;28;6132;-63
2023/10/21 06:10:59;;;;;;;;;;;;;;;18.19;58.09;95249.63;4219272;28;5683;-63
2023/10/21 06:13:02;;;;;;;;;;;;;;;18.19;58.27;95250.44;4219370;28;5667;-63
2023/10/21 06:15:06;;;;;;;;;;;;;;;18.20;58.28;95248.56;4219402;28;5678;-63
2023/10/21 06:17:08;;;;;;;;;;;;;;;18.21;58.45;95258.97;4219422;28;5805;-63
2023/10/21 06:19:12;;;;;;;;;;;;;;;18.20;58.58;95262.72;4219078;28;5659;-63
2023/10/21 06:21:16;;;;;;;;;;;;;;;18.20;58.43;95267.28;4219532;28;5675;-63
2023/10/21 06:23:18;;;;;;;;;;;;;;;18.20;58.45;95268.06;4219307;28;5675;-64
2023/10/21 06:25:21;;;;;;;;;;;;;;;18.20;58.87;95273.41;4218855;28;5680;-63
2023/10/21 06:27:24;;;;;;;;;;;;;;;18.22;58.93;95275.81;4218908;28;5980;-63
2023/10/21 06:29:27;;;;;;;;;;;;;;;18.23;58.74;95277.41;4218941;28;5754;-63
2023/10/21 06:31:31;;;;;;;;;;;;;;;18.23;58.93;95288.09;4219003;28;5795;-63
2023/10/21 06:33:35;;;;;;;;;;;;;;;18.23;58.92;95285.44;4211130;28;5641;-63
2023/10/21 06:35:39;;;;;;;;;;;;;;;18.23;58.88;95290.78;4218739;28;5679;-63
2023/10/21 06:37:43;;;;;;;;;;;;;;;18.23;59.18;95298.81;4218850;28;5663;-63
2023/10/21 06:39:47;;;;;;;;;;;;;;;18.23;58.96;95304.16;4218654;28;6695;-63
2023/10/21 06:41:51;;;;;;;;;;;;;;;18.22;58.93;95305.22;4218441;28;5965;-63
2023/10/21 06:43:54;;;;;;;;;;;;;;;18.20;59.26;95307.38;4221502;28;6180;-63
2023/10/21 06:45:57;;;;;;;;;;;;;;;18.19;59.25;95311.16;4218445;28;5664;-63
2023/10/21 06:48:01;;;;;;;;;;;;;;;18.21;59.50;95311.66;4222602;28;5683;-63
2023/10/21 06:50:05;;;;;;;;;;;;;;;18.21;59.16;95319.69;4218238;28;5667;-63
2023/10/21 06:52:08;;;;;;;;;;;;;;;18.20;59.20;95331.47;4218901;28;5671;-63
2023/10/21 06:54:13;;;;;;;;;;;;;;;18.20;59.43;95328.78;4218867;28;5774;-63
2023/10/21 06:56:16;;;;;;;;;;;;;;;18.20;59.22;95326.91;4219313;28;5794;-63
2023/10/21 06:58:19;;;;;;;;;;;;;;;18.23;59.33;95330.91;4211955;28;5875;-63
2023/10/21 07:00:22;;;;;;;;;;;;;;;18.22;59.18;95324.75;4213044;28;5675;-63
2023/10/21 07:02:24;;;;;;;;;;;;;;;18.22;59.41;95340.00;4215885;28;5770;-62
2023/10/21 07:04:27;;;;;;;;;;;;;;;18.23;59.38;95336.25;4215637;28;5784;-63
2023/10/21 08:09:39;;;;;;;;;;;;;;;18.02;56.25;95371.16;3274041;28;6879;-66
2023/10/21 08:11:45;;;;;;;;;;;;;;;18.06;56.10;95367.91;4189651;28;5681;-69
2023/10/21 08:13:47;;;;;;;;;;;;;;;18.06;56.06;95367.91;4181699;28;5702;-69
2023/10/21 08:15:50;;;;;;;;;;;;;;;18.09;56.05;95372.72;4183479;28;7193;-69
2023/10/21 08:17:53;;;;;;;;;;;;;;;18.11;56.11;95368.69;4183994;28;5370;-69
2023/10/21 08:19:56;;;;;;;;;;;;;;;18.11;55.73;95370.56;4190614;28;5809;-69
2023/10/21 08:21:59;;;;;;;;;;;;;;;18.13;56.04;95379.94;4190208;28;5791;-69
2023/10/21 08:24:03;;;;;;;;;;;;;;;18.17;56.00;95391.66;4183470;28;5678;-69
2023/10/21 08:26:06;;;;;;;;;;;;;;;18.21;55.72;95392.69;4179445;28;5739;-69
2023/10/21 08:28:11;;;;;;;;;;;;;;;18.23;55.71;95393.25;4175146;28;5714;-69
2023/10/21 08:30:14;;;;;;;;;;;;;;;18.25;56.06;95388.41;4177679;28;5827;-69
2023/10/21 08:32:17;;;;;;;;;;;;;;;18.27;55.69;95393.50;4185173;28;5768;-69
2023/10/21 08:34:20;;;;;;;;;;;;;;;18.31;56.03;95389.19;4197824;28;5772;-69
2023/10/21 08:36:23;;;;;;;;;;;;;;;18.35;55.92;95392.91;4183907;28;5677;-69
2023/10/21 08:38:26;;;;;;;;;;;;;;;18.38;56.27;95403.06;4184973;28;5832;-69
2023/10/21 08:40:29;;;;;;;;;;;;;;;18.40;56.48;95387.53;4186850;28;5693;-69
2023/10/21 08:42:31;;;;;;;;;;;;;;;18.40;56.42;95400.09;4182062;28;5710;-69
2023/10/21 08:45:03;;;;;;;;;;;;;;;18.40;56.43;95400.91;4181184;28;5793;-69
2023/10/21 08:47:08;;;;;;;;;;;;;;;18.42;56.30;95403.31;4191458;28;5832;-69
2023/10/21 08:49:13;;;;;;;;;;;;;;;18.42;56.66;95408.66;4187479;28;7807;-69
2023/10/21 08:51:19;;;;;;;;;;;;;;;18.40;56.67;95403.59;4182614;28;6736;-69
2023/10/21 08:53:25;;;;;;;;;;;;;;;18.39;56.74;95415.38;4185265;28;5718;-69
2023/10/21 08:55:28;;;;;;;;;;;;;;;18.38;56.81;95421.78;4184097;28;6564;-69
2023/10/21 08:57:31;;;;;;;;;;;;;;;18.37;56.96;95411.38;4194514;28;5727;-69
2023/10/21 08:59:34;;;;;;;;;;;;;;;18.37;56.79;95417.53;4179255;28;5863;-69
2023/10/21 09:01:40;;;;;;;;;;;;;;;18.38;56.78;95418.31;4179571;28;5957;-69
2023/10/21 09:03:48;;;;;;;;;;;;;;;18.37;56.99;95422.06;4189052;28;5797;-69
2023/10/21 09:06:07;;;;;;;;;;;;;;;18.37;56.84;95430.91;4178770;28;7713;-69
2023/10/21 09:08:11;;;;;;;;;;;;;;;18.38;57.05;95434.38;4183978;28;5825;-69
2023/10/21 09:10:14;;;;;;;;;;;;;;;18.39;57.09;95431.41;4199272;28;5833;-69
2023/10/21 09:12:17;;;;;;;;;;;;;;;18.39;57.01;95428.75;4217820;28;5750;-69
2023/10/21 09:14:21;;;;;;;;;;;;;;;18.39;57.03;95442.13;4218650;28;5794;-69
2023/10/21 09:16:26;;;;;;;;;;;;;;;18.37;56.90;95444.28;4216241;28;5615;-69
2023/10/21 09:18:30;;;;;;;;;;;;;;;18.37;56.85;95438.94;4218417;28;5671;-70
2023/10/21 09:20:37;;;;;;;;;;;;;;;18.37;56.72;95440.81;4218762;28;5749;-69
2023/10/21 09:22:42;;;;;;;;;;;;;;;18.37;56.94;95438.94;4217364;28;5876;-70
2023/10/21 09:24:44;;;;;;;;;;;;;;;18.36;56.95;95437.31;4219136;28;5763;-70
2023/10/21 09:26:50;;;;;;;;;;;;;;;18.36;56.64;95448.03;4218099;28;6347;-69
2023/10/21 09:29:05;;;;;;;;;;;;;;;18.34;56.83;95440.25;4217915;28;6327;-70
2023/10/21 09:31:07;;;;;;;;;;;;;;;18.34;56.67;95450.94;4227096;28;5946;-68
2023/10/21 09:33:10;;;;;;;;;;;;;;;18.34;56.88;95450.16;4217054;28;5646;-69
2023/10/21 09:35:21;;;;;;;;;;;;;;;18.34;56.63;95448.28;4230252;28;5682;-69
2023/10/21 09:37:26;;;;;;;;;;;;;;;18.36;56.20;95457.94;4217456;28;5676;-69
2023/10/21 09:39:32;;;;;;;;;;;;;;;18.35;56.15;95449.09;4212563;28;6688;-69
2023/10/21 09:41:37;;;;;;;;;;;;;;;18.35;55.90;95446.44;4220609;28;5766;-69
2023/10/21 09:43:41;;;;;;;;;;;;;;;18.35;55.72;95454.47;4219793;28;5777;-69
2023/10/21 09:45:46;;;;;;;;;;;;;;;18.35;55.89;95457.13;4219740;28;5671;-69
2023/10/21 09:47:53;;;;;;;;;;;;;;;18.37;55.43;95457.66;4219764;28;5700;-69
2023/10/21 09:49:59;;;;;;;;;;;;;;;18.40;55.37;95457.09;4219506;28;5799;-69
2023/10/21 09:52:07;;;;;;;;;;;;;;;18.45;55.21;95453.59;4219943;28;5663;-69
2023/10/21 09:54:15;;;;;;;;;;;;;;;18.47;54.96;95464.84;4217655;28;5770;-68
2023/10/21 09:56:19;;;;;;;;;;;;;;;18.46;54.70;95464.03;4219525;28;5679;-68
2023/10/21 09:58:23;;;;;;;;;;;;;;;18.48;54.62;95467.22;4219422;28;5727;-69
2023/10/21 10:00:26;;;;;;;;;;;;;;;18.49;54.53;95468.84;4219863;28;5664;-69
2023/10/21 10:02:30;;;;;;;;;;;;;;;18.50;54.26;95475.78;4219651;28;5683;-69
2023/10/21 10:04:36;;;;;;;;;;;;;;;18.51;54.14;95469.34;4219587;28;5749;-69
2023/10/21 10:06:38;;;;;;;;;;;;;;;18.51;54.43;95474.72;4215317;28;5663;-69
2023/10/21 10:08:48;;;;;;;;;;;;;;;18.50;54.32;95473.09;4217183;28;5643;-69
2023/10/21 10:10:57;;;;;;;;;;;;;;;18.54;54.10;95484.06;4217758;28;5897;-69
2023/10/21 10:13:06;;;;;;;;;;;;;;;18.54;53.90;95482.19;4218058;28;6374;-69
2023/10/21 10:15:31;;;;;;;;;;;;;;;18.55;54.18;95489.13;4217792;28;5637;-70
2023/10/21 10:17:50;;;;;;;;;;;;;;;18.56;54.07;95490.72;4217570;28;6400;-69
2023/10/21 10:19:53;;;;;;;;;;;;;;;18.56;54.17;95488.03;4217619;28;5797;-70
2023/10/21 10:21:58;;;;;;;;;;;;;;;18.58;54.01;95493.94;4217893;28;5786;-70
2023/10/21 10:24:05;;;;;;;;;;;;;;;18.59;54.01;95495.56;4218129;28;6707;-69
2023/10/21 10:26:09;;;;;;;;;;;;;;;18.58;53.71;95493.94;4217833;28;6474;-70
2023/10/21 10:28:17;;;;;;;;;;;;;;;18.57;54.03;95491.53;4207270;28;5748;-70
2023/10/21 10:30:20;;;;;;;;;;;;;;;18.58;53.68;95495.81;4217468;28;6723;-70
2023/10/21 10:32:29;;;;;;;;;;;;;;;18.59;53.75;95490.19;4217689;28;5758;-70
2023/10/21 10:34:36;;;;;;;;;;;;;;;18.60;53.76;95497.16;4218146;28;5676;-70
2023/10/21 10:36:40;;;;;;;;;;;;;;;18.62;53.83;95486.97;4218072;28;6347;-69
2023/10/21 10:38:45;;;;;;;;;;;;;;;18.65;53.66;95488.31;4217715;28;5684;-70
2023/10/21 10:40:51;;;;;;;;;;;;;;;18.67;53.59;95482.69;4217712;28;5679;-70
2023/10/21 10:42:56;;;;;;;;;;;;;;;18.68;53.27;95485.06;4217889;28;5773;-70
2023/10/21 10:44:59;;;;;;;;;;;;;;;18.67;53.18;95490.72;4217217;28;5679;-69
2023/10/21 10:47:04;;;;;;;;;;;;;;;18.67;53.22;95477.31;4217272;28;5909;-70
2023/10/21 10:49:08;;;;;;;;;;;;;;;18.66;52.57;95484.56;4216321;28;5855;-70
2023/10/21 10:51:13;;;;;;;;;;;;;;;18.67;52.71;95496.06;4216919;28;5743;-69
2023/10/21 10:53:19;;;;;;;;;;;;;;;18.67;52.69;95485.34;4217510;28;5671;-70
2023/10/21 10:55:22;;;;;;;;;;;;;;;18.68;52.50;95476.25;4217362;28;5787;-70
2023/10/21 10:57:27;;;;;;;;;;;;;;;18.71;52.38;95481.06;4214808;28;5703;-70
2023/10/21 10:59:31;;;;;;;;;;;;;;;18.73;52.33;95481.59;4217404;28;5758;-70
2023/10/21 11:01:34;;;;;;;;;;;;;;;18.73;51.86;95485.06;4217476;28;5657;-70
2023/10/21 11:03:38;;;;;;;;;;;;;;;18.73;52.03;95481.59;4217595;28;5630;-70
2023/10/21 11:05:42;;;;;;;;;;;;;;;18.73;51.62;95485.06;4217448;28;5630;-70
2023/10/21 11:07:46;;;;;;;;;;;;;;;18.76;51.55;95484.50;4217387;28;5833;-70
2023/10/21 11:09:59;;;;;;;;;;;;;;;18.80;51.66;95490.09;4217002;28;5713;-69
2023/10/21 11:12:02;;;;;;;;;;;;;;;18.80;50.99;95492.78;4217147;28;5189;-70
2023/10/21 11:14:16;;;;;;;;;;;;;;;18.79;51.22;95489.31;4216464;28;5689;-70
2023/10/21 11:16:22;;;;;;;;;;;;;;;18.79;50.76;95488.50;4217357;28;5634;-70
2023/10/21 11:18:26;;;;;;;;;;;;;;;18.82;50.77;95490.66;4216645;28;5773;-70
2023/10/21 11:20:29;;;;;;;;;;;;;;;18.83;50.97;95486.88;4217091;28;5663;-70
2023/10/21 11:22:33;;;;;;;;;;;;;;;18.82;50.29;95486.09;4217070;28;6351;-70
2023/10/21 11:24:36;;;;;;;;;;;;;;;18.81;50.09;95489.06;4216814;28;5762;-70
2023/10/21 11:26:40;;;;;;;;;;;;;;;18.82;50.35;95485.28;4214117;28;6419;-69
2023/10/21 11:28:43;;;;;;;;;;;;;;;18.83;50.25;95479.66;4213261;28;5770;-63
2023/10/21 11:30:48;;;;;;;;;;;;;;;18.84;50.13;95480.44;4204410;28;5769;-62
2023/10/21 11:32:53;;;;;;;;;;;;;;;18.85;50.49;95482.84;4211367;28;5792;-62
2023/10/21 11:34:55;;;;;;;;;;;;;;;18.87;50.30;95485.25;4210776;28;5781;-63
2023/10/21 11:36:58;;;;;;;;;;;;;;;18.87;50.14;95490.59;4208508;28;5970;-63
2023/10/21 11:39:01;;;;;;;;;;;;;;;18.87;50.30;95496.75;4214735;28;5667;-64
2023/10/21 11:41:11;;;;;;;;;;;;;;;18.87;49.96;95493.28;4214488;28;5791;-72
2023/10/21 11:43:17;;;;;;;;;;;;;;;18.89;49.62;95499.16;4213288;28;5239;-60
2023/10/21 11:45:22;;;;;;;;;;;;;;;18.87;49.79;95493.28;4209306;28;7754;-61
2023/10/21 11:47:29;;;;;;;;;;;;;;;18.89;49.77;95497.28;4208559;28;5747;-65
2023/10/21 11:49:34;;;;;;;;;;;;;;;18.92;49.68;95498.63;4207402;28;5728;-60
2023/10/21 11:51:37;;;;;;;;;;;;;;;18.95;49.40;95492.72;4215251;28;5742;-60
2023/10/21 11:53:40;;;;;;;;;;;;;;;18.95;49.41;95492.72;4214279;28;5105;-60
2023/10/21 12:05:50;;;;;;;;;;;;;;;19.12;49.07;95486.97;4162088;28;5919;-60
2023/10/21 12:13:24;;;;;;;;;;;;;;;19.14;48.24;95490.16;4082433;28;5868;-60
2023/10/21 12:15:51;;;;;;;;;;;;;;;19.15;48.27;95492.56;4114929;28;5869;-60
2023/10/21 12:20:47;;;;;;;;;;;;;;;19.22;48.34;95488.78;4054735;29;5991;-60